sensor_id;sensor_type;location;lat;lon;timestamp;P1;durP1;ratioP1;P2;durP2;ratioP2
3000;SDS011;1510;51.072;6.678;2023-06-14T00:00:15;14.87;;;7.40;;
3000;SDS011;1510;51.072;6.678;2023-06-14T00:02:43;14.50;;;7.40;;
3000;SDS011;1510;51.072;6.678;2023-06-14T00:05:10;13.07;;;7.70;;
3000;SDS011;1510;51.072;6.678;2023-06-14T00:07:38;11.47;;;8.00;;
3000;SDS011;1510;51.072;6.678;2023-06-14T00:10:08;12.50;;;7.27;;
3000;SDS011;1510;51.072;6.678;2023-06-14T00:12:37;14.30;;;7.73;;
3000;SDS011;1510;51.072;6.678;2023-06-14T00:15:07;12.03;;;7.70;;
3000;SDS011;1510;51.072;6.678;2023-06-14T00:17:35;13.30;;;8.33;;
3000;SDS011;1510;51.072;6.678;2023-06-14T00:20:04;13.90;;;8.70;;
3000;SDS011;1510;51.072;6.678;2023-06-14T00:22:32;14.33;;;9.30;;
3000;SDS011;1510;51.072;6.678;2023-06-14T00:25:01;13.60;;;8.57;;
3000;SDS011;1510;51.072;6.678;2023-06-14T00:27:28;10.60;;;7.73;;
3000;SDS011;1510;51.072;6.678;2023-06-14T00:29:57;11.30;;;6.70;;
3000;SDS011;1510;51.072;6.678;2023-06-14T00:32:24;10.00;;;7.20;;
3000;SDS011;1510;51.072;6.678;2023-06-14T00:34:52;11.97;;;7.93;;
3000;SDS011;1510;51.072;6.678;2023-06-14T00:37:19;12.43;;;7.93;;
3000;SDS011;1510;51.072;6.678;2023-06-14T00:39:46;14.93;;;7.93;;
3000;SDS011;1510;51.072;6.678;2023-06-14T00:42:22;13.63;;;8.17;;
3000;SDS011;1510;51.072;6.678;2023-06-14T00:44:50;11.37;;;7.33;;
3000;SDS011;1510;51.072;6.678;2023-06-14T00:47:18;12.43;;;8.37;;
3000;SDS011;1510;51.072;6.678;2023-06-14T00:49:46;11.80;;;8.20;;
3000;SDS011;1510;51.072;6.678;2023-06-14T00:52:13;16.07;;;7.80;;
3000;SDS011;1510;51.072;6.678;2023-06-14T00:54:41;12.43;;;8.20;;
3000;SDS011;1510;51.072;6.678;2023-06-14T00:57:08;14.70;;;8.80;;
3000;SDS011;1510;51.072;6.678;2023-06-14T00:59:38;13.50;;;9.10;;
3000;SDS011;1510;51.072;6.678;2023-06-14T01:02:09;16.90;;;8.80;;
3000;SDS011;1510;51.072;6.678;2023-06-14T01:04:37;12.00;;;9.00;;
3000;SDS011;1510;51.072;6.678;2023-06-14T01:07:09;18.57;;;8.87;;
3000;SDS011;1510;51.072;6.678;2023-06-14T01:09:45;14.57;;;9.00;;
3000;SDS011;1510;51.072;6.678;2023-06-14T01:12:21;16.33;;;8.60;;
3000;SDS011;1510;51.072;6.678;2023-06-14T01:14:57;12.20;;;8.33;;
3000;SDS011;1510;51.072;6.678;2023-06-14T01:17:26;13.83;;;8.67;;
3000;SDS011;1510;51.072;6.678;2023-06-14T01:19:58;13.10;;;8.73;;
3000;SDS011;1510;51.072;6.678;2023-06-14T01:22:25;12.90;;;8.73;;
3000;SDS011;1510;51.072;6.678;2023-06-14T01:24:54;12.17;;;8.87;;
3000;SDS011;1510;51.072;6.678;2023-06-14T01:27:22;14.80;;;10.50;;
3000;SDS011;1510;51.072;6.678;2023-06-14T01:29:53;11.70;;;9.50;;
3000;SDS011;1510;51.072;6.678;2023-06-14T01:32:22;12.10;;;9.00;;
3000;SDS011;1510;51.072;6.678;2023-06-14T01:34:50;10.60;;;9.00;;
3000;SDS011;1510;51.072;6.678;2023-06-14T01:37:17;12.83;;;9.83;;
3000;SDS011;1510;51.072;6.678;2023-06-14T01:39:45;16.10;;;11.13;;
3000;SDS011;1510;51.072;6.678;2023-06-14T01:42:16;12.37;;;8.67;;
3000;SDS011;1510;51.072;6.678;2023-06-14T01:44:43;13.03;;;10.13;;
3000;SDS011;1510;51.072;6.678;2023-06-14T01:47:10;12.30;;;9.93;;
3000;SDS011;1510;51.072;6.678;2023-06-14T01:49:38;12.33;;;9.90;;
3000;SDS011;1510;51.072;6.678;2023-06-14T01:52:05;10.63;;;9.17;;
3000;SDS011;1510;51.072;6.678;2023-06-14T01:54:34;14.53;;;10.63;;
3000;SDS011;1510;51.072;6.678;2023-06-14T01:57:06;12.07;;;9.47;;
3000;SDS011;1510;51.072;6.678;2023-06-14T01:59:35;15.57;;;11.70;;
3000;SDS011;1510;51.072;6.678;2023-06-14T02:02:02;13.63;;;10.27;;
3000;SDS011;1510;51.072;6.678;2023-06-14T02:04:29;12.40;;;10.20;;
3000;SDS011;1510;51.072;6.678;2023-06-14T02:06:56;14.23;;;11.23;;
3000;SDS011;1510;51.072;6.678;2023-06-14T02:09:23;15.03;;;11.70;;
3000;SDS011;1510;51.072;6.678;2023-06-14T02:11:50;16.37;;;10.70;;
3000;SDS011;1510;51.072;6.678;2023-06-14T02:14:17;15.87;;;11.87;;
3000;SDS011;1510;51.072;6.678;2023-06-14T02:16:45;14.13;;;11.60;;
3000;SDS011;1510;51.072;6.678;2023-06-14T02:19:14;13.50;;;11.30;;
3000;SDS011;1510;51.072;6.678;2023-06-14T02:21:41;13.30;;;11.80;;
3000;SDS011;1510;51.072;6.678;2023-06-14T02:24:08;15.53;;;11.70;;
3000;SDS011;1510;51.072;6.678;2023-06-14T02:26:35;15.00;;;11.90;;
3000;SDS011;1510;51.072;6.678;2023-06-14T02:29:03;16.97;;;14.90;;
3000;SDS011;1510;51.072;6.678;2023-06-14T02:31:30;15.17;;;13.60;;
3000;SDS011;1510;51.072;6.678;2023-06-14T02:33:59;16.87;;;15.27;;
3000;SDS011;1510;51.072;6.678;2023-06-14T02:36:26;15.87;;;14.23;;
3000;SDS011;1510;51.072;6.678;2023-06-14T02:38:54;16.13;;;14.50;;
3000;SDS011;1510;51.072;6.678;2023-06-14T02:41:22;19.30;;;17.70;;
3000;SDS011;1510;51.072;6.678;2023-06-14T02:43:49;19.53;;;17.57;;
3000;SDS011;1510;51.072;6.678;2023-06-14T02:46:16;21.37;;;19.57;;
3000;SDS011;1510;51.072;6.678;2023-06-14T02:48:43;17.00;;;15.30;;
3000;SDS011;1510;51.072;6.678;2023-06-14T02:51:12;23.40;;;21.07;;
3000;SDS011;1510;51.072;6.678;2023-06-14T02:53:39;15.90;;;14.13;;
3000;SDS011;1510;51.072;6.678;2023-06-14T02:56:06;17.90;;;16.30;;
3000;SDS011;1510;51.072;6.678;2023-06-14T02:58:33;18.67;;;16.87;;
3000;SDS011;1510;51.072;6.678;2023-06-14T03:01:00;15.00;;;11.80;;
3000;SDS011;1510;51.072;6.678;2023-06-14T03:03:28;17.00;;;11.83;;
3000;SDS011;1510;51.072;6.678;2023-06-14T03:05:55;18.03;;;14.43;;
3000;SDS011;1510;51.072;6.678;2023-06-14T03:08:23;16.60;;;13.03;;
3000;SDS011;1510;51.072;6.678;2023-06-14T03:10:52;18.13;;;14.30;;
3000;SDS011;1510;51.072;6.678;2023-06-14T03:13:21;21.50;;;13.50;;
3000;SDS011;1510;51.072;6.678;2023-06-14T03:15:48;19.33;;;17.07;;
3000;SDS011;1510;51.072;6.678;2023-06-14T03:18:15;20.40;;;17.10;;
3000;SDS011;1510;51.072;6.678;2023-06-14T03:20:42;22.70;;;17.90;;
3000;SDS011;1510;51.072;6.678;2023-06-14T03:23:10;21.40;;;19.33;;
3000;SDS011;1510;51.072;6.678;2023-06-14T03:25:39;20.07;;;17.93;;
3000;SDS011;1510;51.072;6.678;2023-06-14T03:28:07;19.13;;;11.83;;
3000;SDS011;1510;51.072;6.678;2023-06-14T03:30:34;12.90;;;11.03;;
3000;SDS011;1510;51.072;6.678;2023-06-14T03:33:01;20.27;;;14.00;;
3000;SDS011;1510;51.072;6.678;2023-06-14T03:35:28;15.90;;;13.10;;
3000;SDS011;1510;51.072;6.678;2023-06-14T03:37:55;13.70;;;12.20;;
3000;SDS011;1510;51.072;6.678;2023-06-14T03:40:22;19.70;;;17.90;;
3000;SDS011;1510;51.072;6.678;2023-06-14T03:42:53;34.57;;;32.27;;
3000;SDS011;1510;51.072;6.678;2023-06-14T03:45:19;90.80;;;86.37;;
3000;SDS011;1510;51.072;6.678;2023-06-14T03:47:46;113.93;;;109.17;;
3000;SDS011;1510;51.072;6.678;2023-06-14T03:50:13;134.67;;;129.10;;
3000;SDS011;1510;51.072;6.678;2023-06-14T03:52:40;180.87;;;173.97;;
3000;SDS011;1510;51.072;6.678;2023-06-14T03:55:08;160.57;;;154.00;;
3000;SDS011;1510;51.072;6.678;2023-06-14T03:57:38;133.83;;;128.13;;
3000;SDS011;1510;51.072;6.678;2023-06-14T04:00:07;65.27;;;61.57;;
3000;SDS011;1510;51.072;6.678;2023-06-14T04:02:36;27.30;;;24.90;;
3000;SDS011;1510;51.072;6.678;2023-06-14T04:05:03;27.63;;;24.87;;
3000;SDS011;1510;51.072;6.678;2023-06-14T04:07:33;29.80;;;27.40;;
3000;SDS011;1510;51.072;6.678;2023-06-14T04:10:05;34.80;;;32.33;;
3000;SDS011;1510;51.072;6.678;2023-06-14T04:12:33;28.33;;;26.23;;
3000;SDS011;1510;51.072;6.678;2023-06-14T04:15:00;19.70;;;17.40;;
3000;SDS011;1510;51.072;6.678;2023-06-14T04:17:29;21.43;;;18.50;;
3000;SDS011;1510;51.072;6.678;2023-06-14T04:19:57;21.50;;;18.70;;
3000;SDS011;1510;51.072;6.678;2023-06-14T04:22:24;22.43;;;16.23;;
3000;SDS011;1510;51.072;6.678;2023-06-14T04:24:53;21.90;;;19.87;;
3000;SDS011;1510;51.072;6.678;2023-06-14T04:27:20;22.63;;;20.73;;
3000;SDS011;1510;51.072;6.678;2023-06-14T04:29:50;26.80;;;23.27;;
3000;SDS011;1510;51.072;6.678;2023-06-14T04:32:22;24.07;;;21.80;;
3000;SDS011;1510;51.072;6.678;2023-06-14T04:34:53;16.73;;;14.13;;
3000;SDS011;1510;51.072;6.678;2023-06-14T04:37:20;16.27;;;13.70;;
3000;SDS011;1510;51.072;6.678;2023-06-14T04:39:47;17.13;;;13.20;;
3000;SDS011;1510;51.072;6.678;2023-06-14T04:42:15;16.10;;;12.50;;
3000;SDS011;1510;51.072;6.678;2023-06-14T04:44:45;13.60;;;11.30;;
3000;SDS011;1510;51.072;6.678;2023-06-14T04:47:13;16.30;;;12.80;;
3000;SDS011;1510;51.072;6.678;2023-06-14T04:49:41;15.37;;;10.63;;
3000;SDS011;1510;51.072;6.678;2023-06-14T04:52:10;14.77;;;10.10;;
3000;SDS011;1510;51.072;6.678;2023-06-14T04:54:38;14.93;;;10.30;;
3000;SDS011;1510;51.072;6.678;2023-06-14T04:57:07;13.90;;;10.73;;
3000;SDS011;1510;51.072;6.678;2023-06-14T04:59:39;11.87;;;9.47;;
3000;SDS011;1510;51.072;6.678;2023-06-14T05:02:06;11.60;;;8.53;;
3000;SDS011;1510;51.072;6.678;2023-06-14T05:04:33;13.53;;;9.50;;
3000;SDS011;1510;51.072;6.678;2023-06-14T05:07:04;14.60;;;8.57;;
3000;SDS011;1510;51.072;6.678;2023-06-14T05:09:34;12.97;;;9.40;;
3000;SDS011;1510;51.072;6.678;2023-06-14T05:12:01;18.67;;;9.83;;
3000;SDS011;1510;51.072;6.678;2023-06-14T05:14:28;11.97;;;8.23;;
3000;SDS011;1510;51.072;6.678;2023-06-14T05:16:55;16.33;;;8.83;;
3000;SDS011;1510;51.072;6.678;2023-06-14T05:19:22;13.97;;;8.50;;
3000;SDS011;1510;51.072;6.678;2023-06-14T05:21:49;13.77;;;8.30;;
3000;SDS011;1510;51.072;6.678;2023-06-14T05:24:16;10.80;;;7.17;;
3000;SDS011;1510;51.072;6.678;2023-06-14T05:26:44;9.80;;;7.03;;
3000;SDS011;1510;51.072;6.678;2023-06-14T05:29:11;10.33;;;7.10;;
3000;SDS011;1510;51.072;6.678;2023-06-14T05:31:40;14.23;;;6.90;;
3000;SDS011;1510;51.072;6.678;2023-06-14T05:34:06;12.47;;;7.47;;
3000;SDS011;1510;51.072;6.678;2023-06-14T05:36:34;16.10;;;7.70;;
3000;SDS011;1510;51.072;6.678;2023-06-14T05:39:02;9.53;;;6.47;;
3000;SDS011;1510;51.072;6.678;2023-06-14T05:41:30;11.93;;;6.77;;
3000;SDS011;1510;51.072;6.678;2023-06-14T05:43:59;11.27;;;6.60;;
3000;SDS011;1510;51.072;6.678;2023-06-14T05:46:26;12.03;;;6.50;;
3000;SDS011;1510;51.072;6.678;2023-06-14T05:48:53;11.13;;;5.53;;
3000;SDS011;1510;51.072;6.678;2023-06-14T05:51:21;11.90;;;6.33;;
3000;SDS011;1510;51.072;6.678;2023-06-14T05:53:50;11.00;;;6.30;;
3000;SDS011;1510;51.072;6.678;2023-06-14T05:56:17;13.10;;;6.00;;
3000;SDS011;1510;51.072;6.678;2023-06-14T05:58:44;12.43;;;6.13;;
3000;SDS011;1510;51.072;6.678;2023-06-14T06:01:13;10.70;;;6.13;;
3000;SDS011;1510;51.072;6.678;2023-06-14T06:03:40;7.87;;;5.20;;
3000;SDS011;1510;51.072;6.678;2023-06-14T06:06:10;9.27;;;4.97;;
3000;SDS011;1510;51.072;6.678;2023-06-14T06:08:38;10.37;;;4.93;;
3000;SDS011;1510;51.072;6.678;2023-06-14T06:11:05;10.20;;;5.03;;
3000;SDS011;1510;51.072;6.678;2023-06-14T06:13:32;10.23;;;5.30;;
3000;SDS011;1510;51.072;6.678;2023-06-14T06:16:00;8.60;;;4.53;;
3000;SDS011;1510;51.072;6.678;2023-06-14T06:18:28;9.63;;;4.60;;
3000;SDS011;1510;51.072;6.678;2023-06-14T06:20:55;11.20;;;5.63;;
3000;SDS011;1510;51.072;6.678;2023-06-14T06:23:22;9.77;;;5.57;;
3000;SDS011;1510;51.072;6.678;2023-06-14T06:25:49;12.10;;;4.40;;
3000;SDS011;1510;51.072;6.678;2023-06-14T06:28:17;12.50;;;5.40;;
3000;SDS011;1510;51.072;6.678;2023-06-14T06:30:43;9.50;;;4.87;;
3000;SDS011;1510;51.072;6.678;2023-06-14T06:33:11;8.77;;;4.20;;
3000;SDS011;1510;51.072;6.678;2023-06-14T06:35:40;9.10;;;5.50;;
3000;SDS011;1510;51.072;6.678;2023-06-14T06:38:07;8.50;;;4.40;;
3000;SDS011;1510;51.072;6.678;2023-06-14T06:40:35;9.93;;;4.73;;
3000;SDS011;1510;51.072;6.678;2023-06-14T06:43:02;9.50;;;5.00;;
3000;SDS011;1510;51.072;6.678;2023-06-14T06:45:29;9.17;;;4.57;;
3000;SDS011;1510;51.072;6.678;2023-06-14T06:47:55;9.73;;;4.80;;
3000;SDS011;1510;51.072;6.678;2023-06-14T06:50:22;8.60;;;3.83;;
3000;SDS011;1510;51.072;6.678;2023-06-14T06:52:51;6.70;;;3.80;;
3000;SDS011;1510;51.072;6.678;2023-06-14T06:55:19;7.60;;;4.03;;
3000;SDS011;1510;51.072;6.678;2023-06-14T06:57:46;15.20;;;3.60;;
3000;SDS011;1510;51.072;6.678;2023-06-14T07:00:15;8.67;;;4.63;;
3000;SDS011;1510;51.072;6.678;2023-06-14T07:02:42;11.60;;;4.03;;
3000;SDS011;1510;51.072;6.678;2023-06-14T07:05:09;9.23;;;4.50;;
3000;SDS011;1510;51.072;6.678;2023-06-14T07:07:36;10.40;;;5.23;;
3000;SDS011;1510;51.072;6.678;2023-06-14T07:10:05;10.93;;;4.43;;
3000;SDS011;1510;51.072;6.678;2023-06-14T07:12:32;9.83;;;5.23;;
3000;SDS011;1510;51.072;6.678;2023-06-14T07:15:04;9.80;;;3.47;;
3000;SDS011;1510;51.072;6.678;2023-06-14T07:17:32;10.10;;;3.40;;
3000;SDS011;1510;51.072;6.678;2023-06-14T07:20:00;8.60;;;4.23;;
3000;SDS011;1510;51.072;6.678;2023-06-14T07:22:37;9.63;;;3.73;;
3000;SDS011;1510;51.072;6.678;2023-06-14T07:25:07;8.30;;;3.77;;
3000;SDS011;1510;51.072;6.678;2023-06-14T07:27:34;10.20;;;3.90;;
3000;SDS011;1510;51.072;6.678;2023-06-14T07:30:01;9.03;;;4.00;;
3000;SDS011;1510;51.072;6.678;2023-06-14T07:32:29;6.90;;;3.37;;
3000;SDS011;1510;51.072;6.678;2023-06-14T07:34:56;8.60;;;3.90;;
3000;SDS011;1510;51.072;6.678;2023-06-14T07:37:22;7.90;;;3.63;;
3000;SDS011;1510;51.072;6.678;2023-06-14T07:39:49;8.10;;;3.27;;
3000;SDS011;1510;51.072;6.678;2023-06-14T07:42:18;17.20;;;4.80;;
3000;SDS011;1510;51.072;6.678;2023-06-14T07:44:45;7.10;;;2.90;;
3000;SDS011;1510;51.072;6.678;2023-06-14T07:47:11;5.63;;;2.63;;
3000;SDS011;1510;51.072;6.678;2023-06-14T07:49:38;6.90;;;2.90;;
3000;SDS011;1510;51.072;6.678;2023-06-14T07:52:07;12.73;;;2.93;;
3000;SDS011;1510;51.072;6.678;2023-06-14T07:54:34;6.23;;;3.00;;
3000;SDS011;1510;51.072;6.678;2023-06-14T07:57:01;5.50;;;2.50;;
3000;SDS011;1510;51.072;6.678;2023-06-14T07:59:29;6.33;;;2.43;;
3000;SDS011;1510;51.072;6.678;2023-06-14T08:01:56;6.40;;;2.33;;
3000;SDS011;1510;51.072;6.678;2023-06-14T08:04:23;9.10;;;2.13;;
3000;SDS011;1510;51.072;6.678;2023-06-14T08:06:50;5.70;;;2.10;;
3000;SDS011;1510;51.072;6.678;2023-06-14T08:09:17;5.03;;;1.87;;
3000;SDS011;1510;51.072;6.678;2023-06-14T08:11:43;7.33;;;2.07;;
3000;SDS011;1510;51.072;6.678;2023-06-14T08:14:10;8.10;;;2.57;;
3000;SDS011;1510;51.072;6.678;2023-06-14T08:16:38;4.93;;;1.90;;
3000;SDS011;1510;51.072;6.678;2023-06-14T08:19:08;5.47;;;2.30;;
3000;SDS011;1510;51.072;6.678;2023-06-14T08:21:35;7.10;;;2.10;;
3000;SDS011;1510;51.072;6.678;2023-06-14T08:24:02;6.20;;;2.00;;
3000;SDS011;1510;51.072;6.678;2023-06-14T08:26:29;5.10;;;1.60;;
3000;SDS011;1510;51.072;6.678;2023-06-14T08:28:57;5.77;;;2.03;;
3000;SDS011;1510;51.072;6.678;2023-06-14T08:31:24;5.07;;;1.77;;
3000;SDS011;1510;51.072;6.678;2023-06-14T08:33:54;5.50;;;1.87;;
3000;SDS011;1510;51.072;6.678;2023-06-14T08:36:20;4.53;;;1.50;;
3000;SDS011;1510;51.072;6.678;2023-06-14T08:38:48;4.43;;;1.57;;
3000;SDS011;1510;51.072;6.678;2023-06-14T08:41:17;6.00;;;2.10;;
3000;SDS011;1510;51.072;6.678;2023-06-14T08:43:47;5.93;;;1.70;;
3000;SDS011;1510;51.072;6.678;2023-06-14T08:46:14;5.10;;;2.10;;
3000;SDS011;1510;51.072;6.678;2023-06-14T08:48:44;7.63;;;1.70;;
3000;SDS011;1510;51.072;6.678;2023-06-14T08:51:14;8.07;;;2.07;;
3000;SDS011;1510;51.072;6.678;2023-06-14T08:53:44;4.90;;;1.70;;
3000;SDS011;1510;51.072;6.678;2023-06-14T08:56:12;5.40;;;2.07;;
3000;SDS011;1510;51.072;6.678;2023-06-14T08:58:40;5.30;;;1.80;;
3000;SDS011;1510;51.072;6.678;2023-06-14T09:01:10;6.10;;;2.63;;
3000;SDS011;1510;51.072;6.678;2023-06-14T09:03:39;7.90;;;2.80;;
3000;SDS011;1510;51.072;6.678;2023-06-14T09:06:06;6.30;;;2.50;;
3000;SDS011;1510;51.072;6.678;2023-06-14T09:08:40;6.93;;;2.40;;
3000;SDS011;1510;51.072;6.678;2023-06-14T09:11:09;6.50;;;2.40;;
3000;SDS011;1510;51.072;6.678;2023-06-14T09:13:37;6.90;;;2.77;;
3000;SDS011;1510;51.072;6.678;2023-06-14T09:16:04;7.60;;;2.23;;
3000;SDS011;1510;51.072;6.678;2023-06-14T09:18:35;5.77;;;2.00;;
3000;SDS011;1510;51.072;6.678;2023-06-14T09:21:03;6.67;;;1.70;;
3000;SDS011;1510;51.072;6.678;2023-06-14T09:23:33;7.00;;;1.80;;
3000;SDS011;1510;51.072;6.678;2023-06-14T09:26:06;5.43;;;1.87;;
3000;SDS011;1510;51.072;6.678;2023-06-14T09:28:34;7.27;;;2.50;;
3000;SDS011;1510;51.072;6.678;2023-06-14T09:31:01;5.53;;;2.00;;
3000;SDS011;1510;51.072;6.678;2023-06-14T09:33:28;5.80;;;2.20;;
3000;SDS011;1510;51.072;6.678;2023-06-14T09:35:56;5.27;;;1.90;;
3000;SDS011;1510;51.072;6.678;2023-06-14T09:38:24;7.30;;;2.13;;
3000;SDS011;1510;51.072;6.678;2023-06-14T09:40:51;7.07;;;2.10;;
3000;SDS011;1510;51.072;6.678;2023-06-14T09:43:19;8.10;;;3.20;;
3000;SDS011;1510;51.072;6.678;2023-06-14T09:45:47;7.00;;;2.70;;
3000;SDS011;1510;51.072;6.678;2023-06-14T09:48:14;6.10;;;1.80;;
3000;SDS011;1510;51.072;6.678;2023-06-14T09:50:44;5.40;;;2.20;;
3000;SDS011;1510;51.072;6.678;2023-06-14T09:53:12;4.93;;;2.00;;
3000;SDS011;1510;51.072;6.678;2023-06-14T09:55:40;6.73;;;2.10;;
3000;SDS011;1510;51.072;6.678;2023-06-14T09:58:08;5.23;;;2.27;;
3000;SDS011;1510;51.072;6.678;2023-06-14T10:00:39;6.00;;;1.70;;
3000;SDS011;1510;51.072;6.678;2023-06-14T10:03:11;7.97;;;2.10;;
3000;SDS011;1510;51.072;6.678;2023-06-14T10:05:41;6.57;;;2.60;;
3000;SDS011;1510;51.072;6.678;2023-06-14T10:08:10;6.57;;;2.10;;
3000;SDS011;1510;51.072;6.678;2023-06-14T10:10:42;4.90;;;1.80;;
3000;SDS011;1510;51.072;6.678;2023-06-14T10:13:10;4.90;;;1.93;;
3000;SDS011;1510;51.072;6.678;2023-06-14T10:15:41;5.60;;;2.23;;
3000;SDS011;1510;51.072;6.678;2023-06-14T10:18:16;6.70;;;2.10;;
3000;SDS011;1510;51.072;6.678;2023-06-14T10:20:49;9.73;;;2.20;;
3000;SDS011;1510;51.072;6.678;2023-06-14T10:23:22;4.63;;;1.87;;
3000;SDS011;1510;51.072;6.678;2023-06-14T10:25:50;5.57;;;2.00;;
3000;SDS011;1510;51.072;6.678;2023-06-14T10:28:22;6.40;;;1.70;;
3000;SDS011;1510;51.072;6.678;2023-06-14T10:33:48;5.60;;;2.07;;
3000;SDS011;1510;51.072;6.678;2023-06-14T10:36:25;8.00;;;2.03;;
3000;SDS011;1510;51.072;6.678;2023-06-14T10:38:58;6.30;;;1.70;;
3000;SDS011;1510;51.072;6.678;2023-06-14T10:41:28;6.00;;;1.90;;
3000;SDS011;1510;51.072;6.678;2023-06-14T10:47:00;7.83;;;2.10;;
3000;SDS011;1510;51.072;6.678;2023-06-14T10:49:39;5.77;;;1.80;;
3000;SDS011;1510;51.072;6.678;2023-06-14T10:52:08;5.57;;;2.20;;
3000;SDS011;1510;51.072;6.678;2023-06-14T10:54:54;7.50;;;2.13;;
3000;SDS011;1510;51.072;6.678;2023-06-14T10:57:22;4.80;;;1.60;;
3000;SDS011;1510;51.072;6.678;2023-06-14T10:59:50;6.17;;;2.80;;
3000;SDS011;1510;51.072;6.678;2023-06-14T11:02:26;7.80;;;2.40;;
3000;SDS011;1510;51.072;6.678;2023-06-14T11:05:10;5.50;;;2.40;;
3000;SDS011;1510;51.072;6.678;2023-06-14T11:07:43;6.40;;;2.30;;
3000;SDS011;1510;51.072;6.678;2023-06-14T11:10:22;6.30;;;1.90;;
3000;SDS011;1510;51.072;6.678;2023-06-14T11:12:59;5.40;;;2.10;;
3000;SDS011;1510;51.072;6.678;2023-06-14T11:15:29;5.73;;;2.10;;
3000;SDS011;1510;51.072;6.678;2023-06-14T11:17:58;6.20;;;1.87;;
3000;SDS011;1510;51.072;6.678;2023-06-14T11:20:30;6.10;;;2.50;;
3000;SDS011;1510;51.072;6.678;2023-06-14T11:22:58;5.10;;;2.33;;
3000;SDS011;1510;51.072;6.678;2023-06-14T11:25:25;5.97;;;2.40;;
3000;SDS011;1510;51.072;6.678;2023-06-14T11:27:54;8.10;;;2.70;;
3000;SDS011;1510;51.072;6.678;2023-06-14T11:30:21;5.67;;;2.10;;
3000;SDS011;1510;51.072;6.678;2023-06-14T11:32:51;10.30;;;2.70;;
3000;SDS011;1510;51.072;6.678;2023-06-14T11:35:21;5.20;;;2.70;;
3000;SDS011;1510;51.072;6.678;2023-06-14T11:37:49;5.10;;;1.93;;
3000;SDS011;1510;51.072;6.678;2023-06-14T11:40:20;5.40;;;2.50;;
3000;SDS011;1510;51.072;6.678;2023-06-14T11:42:50;6.20;;;2.50;;
3000;SDS011;1510;51.072;6.678;2023-06-14T11:45:25;8.83;;;2.63;;
3000;SDS011;1510;51.072;6.678;2023-06-14T11:47:54;5.83;;;2.23;;
3000;SDS011;1510;51.072;6.678;2023-06-14T11:50:24;7.53;;;2.53;;
3000;SDS011;1510;51.072;6.678;2023-06-14T11:52:52;5.90;;;2.13;;
3000;SDS011;1510;51.072;6.678;2023-06-14T11:55:19;5.50;;;2.23;;
3000;SDS011;1510;51.072;6.678;2023-06-14T11:57:46;8.90;;;2.50;;
3000;SDS011;1510;51.072;6.678;2023-06-14T12:00:14;5.43;;;1.70;;
3000;SDS011;1510;51.072;6.678;2023-06-14T12:02:42;5.47;;;2.50;;
3000;SDS011;1510;51.072;6.678;2023-06-14T12:05:20;6.97;;;2.00;;
3000;SDS011;1510;51.072;6.678;2023-06-14T12:07:48;11.17;;;2.77;;
3000;SDS011;1510;51.072;6.678;2023-06-14T12:10:18;5.10;;;2.43;;
3000;SDS011;1510;51.072;6.678;2023-06-14T12:12:45;9.03;;;2.33;;
3000;SDS011;1510;51.072;6.678;2023-06-14T12:15:12;7.13;;;2.57;;
3000;SDS011;1510;51.072;6.678;2023-06-14T12:17:39;5.63;;;2.00;;
3000;SDS011;1510;51.072;6.678;2023-06-14T12:20:09;5.07;;;1.97;;
3000;SDS011;1510;51.072;6.678;2023-06-14T12:22:38;5.70;;;2.10;;
3000;SDS011;1510;51.072;6.678;2023-06-14T12:25:07;5.17;;;1.60;;
3000;SDS011;1510;51.072;6.678;2023-06-14T12:27:35;4.50;;;1.70;;
3000;SDS011;1510;51.072;6.678;2023-06-14T12:30:03;6.30;;;1.93;;
3000;SDS011;1510;51.072;6.678;2023-06-14T12:32:32;5.73;;;2.00;;
3000;SDS011;1510;51.072;6.678;2023-06-14T12:34:59;5.33;;;2.60;;
3000;SDS011;1510;51.072;6.678;2023-06-14T12:37:26;5.40;;;1.87;;
3000;SDS011;1510;51.072;6.678;2023-06-14T12:39:54;5.20;;;2.20;;
3000;SDS011;1510;51.072;6.678;2023-06-14T12:42:29;8.03;;;1.90;;
3000;SDS011;1510;51.072;6.678;2023-06-14T12:44:56;7.90;;;1.70;;
3000;SDS011;1510;51.072;6.678;2023-06-14T12:47:23;4.83;;;1.53;;
3000;SDS011;1510;51.072;6.678;2023-06-14T12:49:50;5.20;;;1.67;;
3000;SDS011;1510;51.072;6.678;2023-06-14T12:52:16;5.37;;;1.80;;
3000;SDS011;1510;51.072;6.678;2023-06-14T12:54:43;6.47;;;2.40;;
3000;SDS011;1510;51.072;6.678;2023-06-14T12:57:10;5.70;;;2.00;;
3000;SDS011;1510;51.072;6.678;2023-06-14T12:59:38;4.53;;;1.67;;
3000;SDS011;1510;51.072;6.678;2023-06-14T13:02:15;5.30;;;2.30;;
3000;SDS011;1510;51.072;6.678;2023-06-14T13:04:43;5.30;;;1.70;;
3000;SDS011;1510;51.072;6.678;2023-06-14T13:07:10;7.13;;;2.00;;
3000;SDS011;1510;51.072;6.678;2023-06-14T13:09:37;5.50;;;1.70;;
3000;SDS011;1510;51.072;6.678;2023-06-14T13:12:04;4.37;;;1.47;;
3000;SDS011;1510;51.072;6.678;2023-06-14T13:14:31;6.50;;;1.83;;
3000;SDS011;1510;51.072;6.678;2023-06-14T13:17:00;5.27;;;1.53;;
3000;SDS011;1510;51.072;6.678;2023-06-14T13:19:27;4.60;;;1.33;;
3000;SDS011;1510;51.072;6.678;2023-06-14T13:21:54;6.10;;;1.73;;
3000;SDS011;1510;51.072;6.678;2023-06-14T13:24:23;6.97;;;2.00;;
3000;SDS011;1510;51.072;6.678;2023-06-14T13:26:53;5.03;;;2.03;;
3000;SDS011;1510;51.072;6.678;2023-06-14T13:29:20;5.37;;;1.93;;
3000;SDS011;1510;51.072;6.678;2023-06-14T13:31:47;4.70;;;1.67;;
3000;SDS011;1510;51.072;6.678;2023-06-14T13:34:15;4.70;;;1.57;;
3000;SDS011;1510;51.072;6.678;2023-06-14T13:36:42;5.10;;;1.50;;
3000;SDS011;1510;51.072;6.678;2023-06-14T13:39:09;6.53;;;1.70;;
3000;SDS011;1510;51.072;6.678;2023-06-14T13:41:36;4.73;;;1.57;;
3000;SDS011;1510;51.072;6.678;2023-06-14T13:44:03;9.03;;;4.40;;
3000;SDS011;1510;51.072;6.678;2023-06-14T13:46:30;5.07;;;1.70;;
3000;SDS011;1510;51.072;6.678;2023-06-14T13:48:57;6.00;;;1.80;;
3000;SDS011;1510;51.072;6.678;2023-06-14T13:51:27;5.13;;;1.70;;
3000;SDS011;1510;51.072;6.678;2023-06-14T13:53:54;5.87;;;1.77;;
3000;SDS011;1510;51.072;6.678;2023-06-14T13:56:21;4.83;;;1.43;;
3000;SDS011;1510;51.072;6.678;2023-06-14T13:58:49;4.30;;;1.40;;
3000;SDS011;1510;51.072;6.678;2023-06-14T14:01:17;8.27;;;1.60;;
3000;SDS011;1510;51.072;6.678;2023-06-14T14:03:44;4.93;;;1.47;;
3000;SDS011;1510;51.072;6.678;2023-06-14T14:06:12;4.90;;;1.30;;
3000;SDS011;1510;51.072;6.678;2023-06-14T14:08:41;4.60;;;1.37;;
3000;SDS011;1510;51.072;6.678;2023-06-14T14:11:08;7.73;;;1.90;;
3000;SDS011;1510;51.072;6.678;2023-06-14T14:13:35;5.03;;;1.70;;
3000;SDS011;1510;51.072;6.678;2023-06-14T14:16:03;5.17;;;1.47;;
3000;SDS011;1510;51.072;6.678;2023-06-14T14:18:31;4.60;;;1.50;;
3000;SDS011;1510;51.072;6.678;2023-06-14T14:20:58;5.87;;;1.80;;
3000;SDS011;1510;51.072;6.678;2023-06-14T14:23:25;5.03;;;1.30;;
3000;SDS011;1510;51.072;6.678;2023-06-14T14:25:54;5.10;;;1.30;;
3000;SDS011;1510;51.072;6.678;2023-06-14T14:28:21;5.00;;;1.47;;
3000;SDS011;1510;51.072;6.678;2023-06-14T14:30:48;6.60;;;1.53;;
3000;SDS011;1510;51.072;6.678;2023-06-14T14:33:15;6.67;;;1.67;;
3000;SDS011;1510;51.072;6.678;2023-06-14T14:35:42;5.40;;;1.77;;
3000;SDS011;1510;51.072;6.678;2023-06-14T14:38:11;4.60;;;1.60;;
3000;SDS011;1510;51.072;6.678;2023-06-14T14:40:38;5.80;;;1.63;;
3000;SDS011;1510;51.072;6.678;2023-06-14T14:43:07;5.50;;;1.23;;
3000;SDS011;1510;51.072;6.678;2023-06-14T14:45:34;5.63;;;1.83;;
3000;SDS011;1510;51.072;6.678;2023-06-14T14:48:01;5.03;;;1.83;;
3000;SDS011;1510;51.072;6.678;2023-06-14T14:50:28;7.67;;;1.83;;
3000;SDS011;1510;51.072;6.678;2023-06-14T14:52:55;4.20;;;1.40;;
3000;SDS011;1510;51.072;6.678;2023-06-14T14:55:22;5.23;;;1.43;;
3000;SDS011;1510;51.072;6.678;2023-06-14T14:57:49;5.00;;;1.70;;
3000;SDS011;1510;51.072;6.678;2023-06-14T15:00:18;5.40;;;1.87;;
3000;SDS011;1510;51.072;6.678;2023-06-14T15:02:45;6.40;;;1.90;;
3000;SDS011;1510;51.072;6.678;2023-06-14T15:05:12;9.33;;;2.30;;
3000;SDS011;1510;51.072;6.678;2023-06-14T15:07:38;5.47;;;2.17;;
3000;SDS011;1510;51.072;6.678;2023-06-14T15:10:06;5.47;;;1.87;;
3000;SDS011;1510;51.072;6.678;2023-06-14T15:12:33;4.87;;;2.30;;
3000;SDS011;1510;51.072;6.678;2023-06-14T15:15:00;8.33;;;4.10;;
3000;SDS011;1510;51.072;6.678;2023-06-14T15:17:29;5.43;;;1.93;;